createdAt,value
2023-03-17T00:01:27.615Z,61.17
2023-03-17T00:06:35.244Z,62.55
2023-03-17T00:11:38.418Z,62.08
2023-03-17T00:16:44.165Z,63.12
2023-03-17T00:21:49.326Z,67.53
2023-03-17T00:26:53.361Z,71.78
2023-03-17T00:31:58.897Z,76.79
2023-03-17T00:37:04.292Z,68.58
2023-03-17T00:42:07.887Z,65.42
2023-03-17T00:47:13.139Z,63.65
2023-03-17T00:52:17.957Z,64.98
2023-03-17T00:57:21.195Z,63.15
2023-03-17T01:02:24.795Z,61.72
2023-03-17T01:07:30.534Z,61.64
2023-03-17T01:12:33.947Z,61.39
2023-03-17T01:17:38.148Z,61.78
2023-03-17T01:22:43.044Z,61.40
2023-03-17T01:27:48.013Z,61.62
2023-03-17T01:32:51.559Z,63.61
2023-03-17T01:37:57.254Z,63.30
2023-03-17T01:43:05.685Z,66.63
2023-03-17T01:48:09.237Z,64.91
2023-03-17T01:53:14.449Z,66.34
2023-03-17T01:58:19.388Z,64.29
2023-03-17T02:03:24.090Z,69.55
2023-03-17T02:08:28.760Z,72.90
2023-03-17T02:13:32.968Z,71.96
2023-03-17T02:18:36.158Z,69.23
2023-03-17T02:23:41.489Z,72.35
2023-03-17T02:28:46.317Z,73.32
2023-03-17T02:33:49.690Z,68.77
2023-03-17T02:38:54.997Z,70.11
2023-03-17T02:43:58.400Z,69.60
2023-03-17T02:49:02.704Z,71.81
2023-03-17T02:54:07.341Z,65.64
2023-03-17T02:59:11.233Z,64.36
2023-03-17T03:04:14.411Z,65.65
2023-03-17T03:09:19.071Z,63.70
2023-03-17T03:14:22.186Z,63.67
2023-03-17T03:19:25.425Z,64.21
2023-03-17T03:24:30.167Z,63.43
2023-03-17T03:29:33.570Z,63.95
2023-03-17T03:34:36.748Z,63.12
2023-03-17T03:39:41.538Z,62.84
2023-03-17T03:44:44.818Z,63.30
2023-03-17T03:49:48.144Z,62.93
2023-03-17T03:54:52.770Z,64.29
2023-03-17T03:59:56.276Z,62.84
2023-03-17T04:04:59.529Z,64.08
2023-03-17T04:10:04.983Z,64.16
2023-03-17T04:15:11.286Z,65.18
2023-03-17T04:20:16.534Z,64.99
2023-03-17T04:25:22.442Z,65.56
2023-03-17T04:30:26.475Z,65.36
2023-03-17T04:35:29.799Z,67.50
2023-03-17T04:40:34.386Z,67.87
2023-03-17T04:45:37.786Z,68.39
2023-03-17T04:50:42.444Z,68.18
2023-03-17T04:55:47.253Z,67.85
2023-03-17T05:00:50.880Z,65.81
2023-03-17T05:05:55.020Z,66.82
2023-03-17T05:11:01.565Z,67.69
2023-03-17T05:16:06.520Z,66.43
2023-03-17T05:21:11.142Z,65.56
2023-03-17T05:26:16.732Z,65.42
2023-03-17T05:31:20.378Z,67.47
2023-03-17T05:36:24.559Z,65.17
2023-03-17T05:41:29.598Z,68.34
2023-03-17T05:46:32.861Z,69.01
2023-03-17T05:51:37.043Z,64.66
2023-03-17T05:56:43.009Z,66.49
2023-03-17T06:01:46.522Z,64.78
2023-03-17T06:06:49.967Z,69.21
2023-03-17T06:11:54.571Z,72.46
2023-03-17T06:16:58.066Z,74.55
2023-03-17T06:22:01.285Z,83.39
2023-03-17T06:27:06.170Z,79.50
2023-03-17T06:32:20.307Z,68.45
2023-03-17T06:37:24.396Z,63.89
2023-03-17T06:42:29.121Z,62.02
2023-03-17T06:47:32.438Z,62.08
2023-03-17T06:52:36.083Z,58.64
2023-03-17T06:57:40.653Z,55.86
2023-03-17T07:02:44.273Z,55.91
2023-03-17T07:07:47.472Z,53.66
2023-03-17T07:12:52.256Z,50.02
2023-03-17T07:17:56.009Z,49.06
2023-03-17T07:22:59.646Z,49.55
2023-03-17T07:28:04.855Z,49.61
2023-03-17T07:33:08.421Z,47.85
2023-03-17T07:38:12.027Z,48.21
2023-03-17T07:43:17.782Z,46.32
2023-03-17T07:48:21.330Z,45.57
2023-03-17T07:53:25.291Z,45.94
2023-03-17T07:58:30.081Z,45.34
2023-03-17T08:03:34.093Z,44.14
2023-03-17T08:08:38.232Z,43.56
2023-03-17T08:13:42.774Z,45.25
2023-03-17T08:18:45.980Z,42.49
2023-03-17T08:23:49.812Z,42.35
2023-03-17T08:28:54.445Z,40.70
2023-03-17T08:33:57.922Z,41.33
2023-03-17T08:39:01.208Z,41.44
2023-03-17T08:44:05.883Z,40.57
2023-03-17T08:49:09.693Z,38.94
2023-03-17T08:54:14.143Z,39.97
2023-03-17T08:59:19.003Z,39.75
2023-03-17T09:04:23.480Z,39.73
2023-03-17T09:09:26.730Z,39.12
2023-03-17T09:14:40.077Z,40.28
2023-03-17T09:19:46.020Z,38.64
2023-03-17T09:24:49.369Z,39.71
2023-03-17T09:29:54.183Z,38.13
2023-03-17T09:34:57.690Z,39.37
2023-03-17T09:40:01.207Z,34.56
2023-03-17T09:45:21.160Z,38.49
2023-03-17T09:50:28.431Z,39.05
2023-03-17T09:55:34.206Z,38.76
2023-03-17T10:00:39.633Z,36.87
2023-03-17T10:05:42.835Z,36.11
2023-03-17T10:10:49.522Z,37.65
2023-03-17T10:15:59.414Z,38.68
2023-03-17T10:21:06.054Z,36.58
2023-03-17T10:26:22.181Z,35.05
2023-03-17T10:31:33.202Z,37.47
2023-03-17T10:36:39.153Z,37.93
2023-03-17T10:41:55.610Z,36.62
2023-03-17T10:47:00.837Z,35.68
2023-03-17T10:52:08.902Z,34.97
2023-03-17T10:57:15.486Z,36.16
2023-03-17T11:02:25.290Z,36.48
2023-03-17T11:07:31.518Z,35.63
2023-03-17T11:12:40.174Z,36.32
2023-03-17T11:17:53.148Z,36.06
2023-03-17T11:23:04.858Z,34.48
2023-03-17T11:28:20.355Z,35.95
2023-03-17T11:33:36.656Z,34.41
2023-03-17T11:38:50.036Z,32.69
2023-03-17T11:44:09.239Z,34.60
2023-03-17T11:49:19.121Z,36.06
2023-03-17T11:54:29.901Z,35.66
2023-03-17T11:59:39.835Z,34.36
2023-03-17T12:04:53.200Z,36.08
2023-03-17T12:10:05.173Z,35.08
2023-03-17T12:15:16.863Z,36.08
2023-03-17T12:20:31.155Z,35.49
2023-03-17T12:25:37.193Z,36.52
2023-03-17T12:30:51.322Z,37.45
2023-03-17T12:35:56.088Z,34.89
2023-03-17T12:41:21.408Z,36.67
2023-03-17T12:46:45.675Z,36.64
2023-03-17T12:52:05.532Z,33.69
2023-03-17T12:57:16.080Z,32.40
2023-03-17T13:02:32.151Z,36.15
2023-03-17T13:07:42.361Z,34.55
2023-03-17T13:13:12.058Z,34.29
2023-03-17T13:18:50.421Z,35.57
2023-03-17T13:24:38.842Z,35.25
2023-03-17T13:29:48.769Z,35.67
2023-03-17T13:34:53.939Z,35.27
2023-03-17T13:40:17.574Z,36.49
2023-03-17T13:45:37.340Z,35.19
2023-03-17T13:50:41.394Z,34.38
2023-03-17T13:56:09.774Z,36.78
2023-03-17T14:01:15.359Z,36.57
2023-03-17T14:06:21.180Z,36.72
2023-03-17T14:11:29.893Z,36.96
2023-03-17T14:16:36.972Z,36.74
2023-03-17T14:21:40.855Z,35.24
2023-03-17T14:26:45.671Z,34.54
2023-03-17T14:31:51.039Z,36.21
2023-03-17T14:36:54.370Z,37.10
2023-03-17T14:42:05.002Z,37.06
2023-03-17T14:47:16.101Z,37.95
2023-03-17T14:52:21.920Z,39.76
2023-03-17T14:57:32.755Z,38.86
2023-03-17T15:02:38.093Z,39.05
2023-03-17T15:07:43.454Z,38.82
2023-03-17T15:12:49.364Z,38.84
2023-03-17T15:17:55.750Z,40.28
2023-03-17T15:23:01.888Z,38.46
2023-03-17T15:28:12.696Z,38.58
2023-03-17T15:33:23.016Z,38.62
2023-03-17T15:38:26.761Z,38.78
2023-03-17T15:43:31.820Z,44.78
2023-03-17T15:48:37.486Z,40.49
2023-03-17T15:53:40.691Z,41.80
2023-03-17T15:58:45.444Z,42.17
2023-03-17T16:03:49.866Z,43.40
2023-03-17T16:08:53.259Z,43.69
2023-03-17T16:13:59.770Z,44.78
2023-03-17T16:19:04.793Z,45.10
2023-03-17T16:24:10.424Z,44.32
2023-03-17T16:29:16.554Z,45.26
2023-03-17T16:34:21.709Z,46.85
2023-03-17T16:39:26.575Z,46.08
2023-03-17T16:44:31.943Z,45.85
2023-03-17T16:49:35.654Z,46.92
2023-03-17T16:54:42.407Z,50.87
2023-03-17T16:59:47.489Z,49.89
2023-03-17T17:04:51.254Z,51.82
2023-03-17T17:09:55.252Z,52.76
2023-03-17T17:14:59.938Z,57.28
2023-03-17T17:20:04.744Z,58.74
2023-03-17T17:25:10.145Z,54.74
2023-03-17T17:30:16.947Z,61.99
2023-03-17T17:35:20.602Z,63.29
2023-03-17T17:40:25.916Z,64.28
2023-03-17T17:45:30.748Z,61.96
2023-03-17T17:50:34.234Z,69.49
2023-03-17T17:55:37.909Z,68.22
2023-03-17T18:00:44.613Z,66.87
2023-03-17T18:05:47.989Z,66.29
2023-03-17T18:10:52.261Z,68.66
2023-03-17T18:15:57.154Z,68.85
2023-03-17T18:21:00.293Z,70.45
2023-03-17T18:26:06.048Z,71.89
2023-03-17T18:31:14.483Z,75.54
2023-03-17T18:36:18.948Z,75.95
2023-03-17T18:41:22.337Z,76.71
2023-03-17T18:46:26.816Z,80.76
2023-03-17T18:51:30.074Z,81.47
2023-03-17T18:56:33.653Z,82.99
2023-03-17T19:01:38.397Z,85.59
2023-03-17T19:06:42.980Z,85.64
2023-03-17T19:11:46.409Z,84.45
2023-03-17T19:16:51.311Z,68.71
2023-03-17T19:21:54.899Z,59.85
2023-03-17T19:26:58.296Z,55.02
2023-03-17T19:32:02.915Z,53.35
2023-03-17T19:37:06.063Z,54.80
2023-03-17T19:42:09.465Z,55.68
2023-03-17T19:47:13.999Z,51.31
2023-03-17T19:52:17.240Z,56.73
2023-03-17T19:57:20.992Z,56.16
2023-03-17T20:02:25.757Z,57.68
2023-03-17T20:07:29.097Z,61.46
2023-03-17T20:12:32.900Z,60.94
2023-03-17T20:17:37.754Z,64.82
2023-03-17T20:22:43.594Z,69.97
2023-03-17T20:27:47.008Z,68.54
2023-03-17T20:32:51.611Z,68.90
2023-03-17T20:37:57.069Z,70.34
2023-03-17T20:43:00.243Z,72.64
2023-03-17T20:48:06.731Z,76.08
2023-03-17T20:53:11.713Z,72.46
2023-03-17T20:58:14.805Z,60.42
2023-03-17T21:03:20.988Z,56.19
2023-03-17T21:08:25.084Z,55.18
2023-03-17T21:13:28.634Z,52.46
2023-03-17T21:18:33.254Z,55.20
2023-03-17T21:23:38.814Z,55.67
2023-03-17T21:28:43.531Z,54.84
2023-03-17T21:33:50.547Z,55.33
2023-03-17T21:38:54.318Z,55.80
2023-03-17T21:43:58.036Z,55.33
2023-03-17T21:49:02.672Z,62.70
2023-03-17T21:54:06.428Z,74.07
2023-03-17T21:59:11.053Z,80.31
2023-03-17T22:04:15.619Z,78.08
2023-03-17T22:09:19.462Z,81.51
2023-03-17T22:14:23.023Z,65.67
2023-03-17T22:19:28.890Z,61.49
2023-03-17T22:24:32.474Z,57.39
2023-03-17T22:29:35.804Z,55.96
2023-03-17T22:34:40.498Z,56.04
2023-03-17T22:39:43.926Z,54.78
2023-03-17T22:44:47.404Z,54.34
2023-03-17T22:49:52.790Z,53.50
2023-03-17T22:54:56.330Z,54.03
2023-03-17T22:59:59.552Z,54.55
2023-03-17T23:05:04.448Z,54.21
2023-03-17T23:10:09.174Z,54.82
2023-03-17T23:15:13.426Z,56.10
2023-03-17T23:20:19.114Z,55.54
2023-03-17T23:25:22.862Z,56.71
2023-03-17T23:30:26.674Z,57.28
2023-03-17T23:35:31.746Z,59.06
2023-03-17T23:40:35.222Z,61.33
2023-03-17T23:45:38.977Z,63.80
2023-03-17T23:50:44.176Z,64.21
2023-03-17T23:55:47.461Z,66.37
